createdAt,value
2023-03-11T00:02:04.002Z,59.34
2023-03-11T00:04:35.734Z,59.82
2023-03-11T00:07:09.606Z,60.06
2023-03-11T00:09:41.254Z,60.19
2023-03-11T00:12:15.912Z,61.04
2023-03-11T00:14:47.525Z,60.67
2023-03-11T00:17:19.042Z,60.77
2023-03-11T00:19:50.786Z,60.88
2023-03-11T00:22:22.430Z,62.15
2023-03-11T00:24:53.974Z,61.87
2023-03-11T00:27:25.672Z,61.99
2023-03-11T00:29:57.220Z,62.08
2023-03-11T00:32:28.840Z,61.79
2023-03-11T00:35:00.568Z,62.38
2023-03-11T00:37:32.295Z,62.55
2023-03-11T00:40:08.864Z,62.27
2023-03-11T00:42:40.659Z,61.60
2023-03-11T00:45:13.381Z,62.03
2023-03-11T00:47:45.117Z,61.73
2023-03-11T00:50:30.327Z,62.09
2023-03-11T00:53:03.878Z,61.35
2023-03-11T00:55:35.929Z,61.65
2023-03-11T00:58:08.690Z,62.37
2023-03-11T01:00:40.962Z,62.54
2023-03-11T01:03:12.520Z,61.93
2023-03-11T01:05:44.149Z,62.74
2023-03-11T01:08:15.928Z,63.20
2023-03-11T01:10:47.456Z,62.23
2023-03-11T01:13:19.406Z,62.83
2023-03-11T01:15:51.024Z,62.49
2023-03-11T01:18:26.028Z,62.95
2023-03-11T01:20:57.590Z,62.62
2023-03-11T01:23:29.616Z,62.79
2023-03-11T01:26:01.316Z,62.38
2023-03-11T01:28:33.020Z,62.17
2023-03-11T01:31:04.759Z,61.67
2023-03-11T01:33:36.803Z,62.10
2023-03-11T01:36:08.999Z,61.79
2023-03-11T01:38:40.603Z,61.67
2023-03-11T01:41:13.101Z,60.33
2023-03-11T01:43:44.640Z,58.66
2023-03-11T01:46:21.574Z,59.01
2023-03-11T01:48:56.821Z,59.10
2023-03-11T01:51:46.063Z,60.07
2023-03-11T01:54:40.097Z,59.41
2023-03-11T01:57:14.739Z,58.87
2023-03-11T01:59:54.250Z,57.99
2023-03-11T02:02:34.992Z,57.27
2023-03-11T02:05:06.911Z,56.80
2023-03-11T02:07:40.777Z,55.95
2023-03-11T02:10:16.090Z,56.18
2023-03-11T02:12:50.116Z,56.47
2023-03-11T02:15:25.809Z,55.97
2023-03-11T02:17:59.154Z,55.22
2023-03-11T02:20:47.154Z,55.37
2023-03-11T02:23:21.564Z,55.10
2023-03-11T02:26:15.330Z,55.40
2023-03-11T02:28:49.174Z,54.64
2023-03-11T02:31:22.633Z,54.35
2023-03-11T02:33:57.802Z,55.17
2023-03-11T02:36:40.324Z,54.98
2023-03-11T02:39:11.939Z,55.05
2023-03-11T02:41:47.167Z,54.49
2023-03-11T02:44:18.761Z,55.83
2023-03-11T02:46:51.605Z,55.95
2023-03-11T02:49:23.510Z,55.96
2023-03-11T02:51:55.174Z,56.52
2023-03-11T02:54:26.723Z,55.09
2023-03-11T02:56:58.485Z,56.10
2023-03-11T02:59:30.225Z,55.93
2023-03-11T03:02:02.067Z,55.80
2023-03-11T03:04:33.727Z,56.09
2023-03-11T03:07:05.353Z,55.62
2023-03-11T03:09:37.634Z,55.11
2023-03-11T03:12:09.405Z,56.43
2023-03-11T03:14:40.920Z,56.25
2023-03-11T03:17:14.933Z,56.82
2023-03-11T03:19:46.725Z,55.98
2023-03-11T03:22:18.337Z,55.67
2023-03-11T03:24:49.856Z,55.98
2023-03-11T03:27:21.420Z,57.11
2023-03-11T03:29:52.938Z,56.43
2023-03-11T03:32:24.593Z,57.66
2023-03-11T03:34:59.022Z,57.41
2023-03-11T03:37:34.837Z,58.33
2023-03-11T03:40:13.804Z,58.86
2023-03-11T03:42:45.428Z,58.07
2023-03-11T03:45:17.384Z,58.44
2023-03-11T03:47:48.963Z,59.24
2023-03-11T03:50:20.697Z,58.07
2023-03-11T03:52:52.470Z,58.31
2023-03-11T03:55:24.088Z,57.14
2023-03-11T03:57:55.566Z,56.59
2023-03-11T04:00:27.142Z,56.70
2023-03-11T04:02:58.819Z,56.54
2023-03-11T04:05:30.449Z,57.01
2023-03-11T04:08:02.276Z,56.91
2023-03-11T04:10:33.889Z,56.55
2023-03-11T04:13:05.509Z,57.36
2023-03-11T04:15:40.056Z,56.74
2023-03-11T04:18:11.607Z,51.70
2023-03-11T04:20:43.207Z,47.81
2023-03-11T04:23:14.868Z,48.76
2023-03-11T04:25:46.476Z,48.59
2023-03-11T04:28:18.135Z,47.90
2023-03-11T04:30:50.264Z,47.98
2023-03-11T04:33:22.124Z,47.74
2023-03-11T04:35:53.659Z,48.08
2023-03-11T04:38:25.373Z,47.37
2023-03-11T04:41:04.859Z,47.32
2023-03-11T04:43:36.405Z,46.97
2023-03-11T04:46:08.052Z,47.27
2023-03-11T04:48:39.899Z,46.94
2023-03-11T04:51:11.583Z,46.57
2023-03-11T04:53:43.289Z,46.58
2023-03-11T04:56:14.876Z,46.29
2023-03-11T04:58:46.485Z,45.91
2023-03-11T05:01:18.170Z,46.24
2023-03-11T05:03:49.935Z,46.31
2023-03-11T05:06:21.535Z,45.82
2023-03-11T05:08:53.114Z,47.59
2023-03-11T05:11:25.420Z,46.26
2023-03-11T05:13:57.317Z,45.81
2023-03-11T05:16:28.845Z,46.21
2023-03-11T05:19:00.426Z,46.56
2023-03-11T05:21:31.886Z,46.57
2023-03-11T05:24:03.802Z,46.57
2023-03-11T05:26:35.300Z,47.17
2023-03-11T05:29:07.203Z,47.29
2023-03-11T05:31:38.957Z,48.01
2023-03-11T05:34:10.645Z,47.57
2023-03-11T05:36:42.825Z,47.46
2023-03-11T05:39:17.087Z,46.78
2023-03-11T05:41:48.627Z,46.72
2023-03-11T05:44:20.228Z,45.71
2023-03-11T05:46:51.850Z,45.97
2023-03-11T05:49:25.996Z,45.78
2023-03-11T05:51:59.682Z,44.52
2023-03-11T05:54:31.202Z,44.85
2023-03-11T05:57:02.809Z,44.55
2023-03-11T05:59:35.436Z,43.67
2023-03-11T06:02:07.031Z,44.40
2023-03-11T06:04:38.735Z,44.38
2023-03-11T06:07:12.293Z,43.81
2023-03-11T06:09:43.866Z,44.58
2023-03-11T06:12:15.425Z,43.80
2023-03-11T06:14:47.080Z,43.91
2023-03-11T06:17:18.622Z,43.80
2023-03-11T06:19:53.758Z,44.22
2023-03-11T06:22:25.301Z,43.23
2023-03-11T06:24:56.878Z,43.94
2023-03-11T06:27:31.323Z,43.80
2023-03-11T06:30:07.211Z,43.81
2023-03-11T06:32:38.820Z,43.84
2023-03-11T06:35:11.356Z,43.10
2023-03-11T06:37:45.016Z,43.32
2023-03-11T06:40:16.953Z,44.24
2023-03-11T06:42:48.675Z,44.04
2023-03-11T06:45:20.782Z,43.87
2023-03-11T06:47:52.515Z,43.88
2023-03-11T06:50:24.096Z,43.87
2023-03-11T06:52:55.717Z,44.01
2023-03-11T06:55:27.287Z,43.28
2023-03-11T06:57:58.953Z,43.12
2023-03-11T07:00:31.201Z,42.74
2023-03-11T07:03:03.033Z,43.42
2023-03-11T07:05:34.538Z,43.02
2023-03-11T07:08:06.277Z,42.97
2023-03-11T07:10:37.861Z,43.05
2023-03-11T07:13:09.445Z,42.97
2023-03-11T07:15:41.037Z,43.15
2023-03-11T07:18:12.610Z,43.20
2023-03-11T07:20:44.141Z,43.16
2023-03-11T07:23:15.836Z,44.11
2023-03-11T07:25:48.490Z,42.37
2023-03-11T07:28:20.253Z,42.50
2023-03-11T07:30:53.145Z,42.61
2023-03-11T07:33:24.900Z,40.40
2023-03-11T07:35:56.468Z,40.49
2023-03-11T07:38:28.381Z,40.13
2023-03-11T07:41:00.182Z,39.83
2023-03-11T07:43:33.074Z,41.01
2023-03-11T07:46:18.501Z,40.15
2023-03-11T07:48:51.177Z,39.15
2023-03-11T07:51:26.253Z,39.06
2023-03-11T07:54:00.249Z,39.32
2023-03-11T07:56:35.803Z,39.76
2023-03-11T07:59:08.320Z,39.70
2023-03-11T08:01:41.386Z,39.86
2023-03-11T08:04:16.892Z,39.94
2023-03-11T08:06:51.219Z,39.76
2023-03-11T08:09:22.875Z,39.62
2023-03-11T08:11:54.597Z,40.09
2023-03-11T08:14:26.229Z,38.38
2023-03-11T08:16:57.723Z,38.83
2023-03-11T08:19:29.279Z,39.84
2023-03-11T08:22:03.507Z,40.86
2023-03-11T08:24:36.032Z,40.04
2023-03-11T08:27:09.668Z,39.35
2023-03-11T08:29:41.237Z,38.95
2023-03-11T08:32:13.005Z,38.89
2023-03-11T08:34:44.627Z,38.70
2023-03-11T08:37:16.458Z,39.21
2023-03-11T08:39:48.065Z,38.64
2023-03-11T08:42:19.660Z,39.28
2023-03-11T08:44:53.418Z,40.55
2023-03-11T08:47:24.944Z,39.77
2023-03-11T08:49:56.564Z,38.59
2023-03-11T08:52:28.141Z,39.41
2023-03-11T08:54:59.825Z,39.00
2023-03-11T08:57:32.518Z,37.94
2023-03-11T09:00:10.627Z,38.30
2023-03-11T09:02:43.466Z,37.71
2023-03-11T09:05:15.712Z,37.83
2023-03-11T09:07:47.740Z,37.23
2023-03-11T09:10:19.375Z,37.35
2023-03-11T09:12:51.000Z,37.64
2023-03-11T09:15:22.530Z,37.49
2023-03-11T09:17:54.424Z,36.70
2023-03-11T09:20:26.052Z,36.97
2023-03-11T09:22:57.646Z,37.86
2023-03-11T09:25:29.341Z,37.14
2023-03-11T09:28:01.001Z,36.02
2023-03-11T09:30:36.042Z,36.69
2023-03-11T09:33:07.628Z,35.29
2023-03-11T09:35:42.289Z,35.68
2023-03-11T09:38:14.280Z,35.09
2023-03-11T09:40:57.861Z,35.61
2023-03-11T09:43:40.034Z,35.31
2023-03-11T09:46:20.583Z,36.60
2023-03-11T09:49:24.563Z,35.32
2023-03-11T09:52:15.667Z,37.04
2023-03-11T09:54:51.356Z,37.24
2023-03-11T09:57:30.774Z,36.82
2023-03-11T10:00:07.429Z,36.99
2023-03-11T10:02:41.645Z,36.57
2023-03-11T10:05:27.772Z,35.12
2023-03-11T10:08:34.302Z,34.30
2023-03-11T10:11:51.299Z,35.48
2023-03-11T10:14:42.771Z,35.75
2023-03-11T10:17:44.128Z,34.76
2023-03-11T10:20:41.081Z,35.21
2023-03-11T10:23:28.433Z,34.51
2023-03-11T10:26:37.407Z,33.03
2023-03-11T10:29:27.536Z,31.51
2023-03-11T10:32:15.426Z,31.87
2023-03-11T10:34:58.046Z,31.17
2023-03-11T10:38:14.239Z,31.46
2023-03-11T10:40:48.863Z,33.82
2023-03-11T10:43:38.529Z,31.24
2023-03-11T10:46:27.294Z,33.07
2023-03-11T10:48:59.018Z,33.29
2023-03-11T10:51:41.117Z,32.33
2023-03-11T10:54:47.974Z,32.73
2023-03-11T10:57:29.441Z,34.20
2023-03-11T11:00:09.639Z,33.08
2023-03-11T11:02:58.175Z,31.74
2023-03-11T11:05:39.224Z,30.87
2023-03-11T11:08:17.231Z,29.88
2023-03-11T11:10:56.094Z,32.96
2023-03-11T11:13:37.069Z,32.36
2023-03-11T11:16:20.926Z,35.65
2023-03-11T11:19:15.400Z,35.21
2023-03-11T11:21:52.344Z,37.76
2023-03-11T11:24:27.362Z,35.45
2023-03-11T11:27:19.687Z,31.44
2023-03-11T11:30:09.349Z,29.87
2023-03-11T11:32:41.138Z,29.69
2023-03-11T11:35:15.381Z,32.04
2023-03-11T11:37:51.878Z,33.44
2023-03-11T11:40:33.926Z,31.96
2023-03-11T11:43:16.307Z,29.44
2023-03-11T11:46:00.558Z,30.10
2023-03-11T11:48:50.049Z,27.89
2023-03-11T11:51:31.975Z,29.07
2023-03-11T11:54:27.196Z,32.44
2023-03-11T11:57:01.954Z,32.71
2023-03-11T11:59:33.489Z,32.35
2023-03-11T12:02:42.697Z,30.09
2023-03-11T12:05:19.806Z,27.26
2023-03-11T12:08:09.377Z,24.97
2023-03-11T12:10:59.516Z,28.76
2023-03-11T12:14:36.590Z,30.63
2023-03-11T12:17:13.505Z,27.47
2023-03-11T12:19:56.374Z,28.22
2023-03-11T12:22:43.064Z,26.98
2023-03-11T12:25:53.386Z,27.88
2023-03-11T12:28:40.637Z,28.30
2023-03-11T12:31:14.054Z,28.27
2023-03-11T12:33:55.594Z,26.89
2023-03-11T12:36:43.846Z,28.11
2023-03-11T12:39:32.721Z,26.80
2023-03-11T12:42:21.885Z,32.54
2023-03-11T12:44:53.861Z,29.30
2023-03-11T12:47:28.850Z,28.59
2023-03-11T12:50:43.582Z,29.78
2023-03-11T12:53:18.366Z,30.09
2023-03-11T12:56:28.234Z,32.11
2023-03-11T12:59:46.564Z,35.71
2023-03-11T13:03:02.007Z,35.50
2023-03-11T13:06:04.618Z,37.69
2023-03-11T13:08:57.230Z,38.68
2023-03-11T13:11:43.888Z,42.13
2023-03-11T13:14:25.894Z,42.51
2023-03-11T13:17:25.001Z,45.10
2023-03-11T13:19:58.782Z,46.81
2023-03-11T13:22:58.399Z,45.63
2023-03-11T13:25:38.027Z,44.83
2023-03-11T13:28:50.579Z,43.14
2023-03-11T13:31:44.313Z,43.88
2023-03-11T13:34:35.605Z,41.73
2023-03-11T13:37:36.096Z,44.35
2023-03-11T13:40:32.755Z,42.04
2023-03-11T13:43:24.660Z,42.38
2023-03-11T13:46:13.262Z,43.51
2023-03-11T13:48:48.115Z,39.88
2023-03-11T13:51:27.746Z,39.85
2023-03-11T13:54:42.241Z,40.58
2023-03-11T13:57:24.352Z,46.45
2023-03-11T13:59:57.764Z,45.60
2023-03-11T14:02:29.384Z,42.06
2023-03-11T14:05:07.257Z,44.98
2023-03-11T14:07:38.980Z,41.77
2023-03-11T14:10:29.928Z,40.70
2023-03-11T14:13:17.972Z,39.70
2023-03-11T14:15:57.342Z,41.46
2023-03-11T14:18:35.244Z,43.45
2023-03-11T14:21:17.290Z,40.12
2023-03-11T14:23:54.822Z,46.09
2023-03-11T14:26:34.908Z,46.07
2023-03-11T14:29:18.638Z,43.77
2023-03-11T14:31:50.176Z,42.47
2023-03-11T14:34:28.820Z,44.78
2023-03-11T14:37:03.942Z,44.26
2023-03-11T14:39:43.718Z,45.52
2023-03-11T14:42:41.212Z,45.04
2023-03-11T14:45:16.924Z,44.41
2023-03-11T14:48:18.154Z,42.36
2023-03-11T14:50:50.160Z,42.69
2023-03-11T14:53:27.670Z,44.19
2023-03-11T14:56:27.640Z,43.25
2023-03-11T14:59:14.180Z,44.44
2023-03-11T15:01:47.948Z,43.59
2023-03-11T15:04:32.926Z,44.84
2023-03-11T15:07:05.864Z,43.42
2023-03-11T15:09:42.168Z,45.88
2023-03-11T15:12:37.174Z,44.70
2023-03-11T15:15:27.643Z,47.40
2023-03-11T15:18:01.404Z,47.85
2023-03-11T15:20:36.880Z,47.07
2023-03-11T15:23:25.380Z,47.33
2023-03-11T15:25:56.968Z,46.92
2023-03-11T15:28:32.318Z,46.04
2023-03-11T15:31:22.571Z,47.39
2023-03-11T15:33:54.471Z,45.01
2023-03-11T15:36:39.519Z,46.04
2023-03-11T15:39:26.564Z,46.52
2023-03-11T15:42:06.936Z,48.35
2023-03-11T15:45:12.009Z,50.56
2023-03-11T15:47:45.632Z,50.72
2023-03-11T15:50:27.763Z,48.83
2023-03-11T15:53:04.905Z,49.60
2023-03-11T15:55:37.234Z,48.86
2023-03-11T15:58:09.909Z,48.94
2023-03-11T16:00:48.542Z,48.80
2023-03-11T16:03:20.315Z,47.82
2023-03-11T16:05:51.958Z,48.29
2023-03-11T16:08:23.555Z,47.58
2023-03-11T16:10:57.425Z,47.60
2023-03-11T16:13:32.030Z,49.96
2023-03-11T16:16:04.834Z,49.84
2023-03-11T16:18:36.598Z,49.09
2023-03-11T16:21:18.685Z,48.98
2023-03-11T16:23:52.334Z,49.05
2023-03-11T16:26:24.086Z,47.98
2023-03-11T16:29:09.095Z,49.15
2023-03-11T16:31:52.711Z,48.78
2023-03-11T16:34:24.419Z,49.00
2023-03-11T16:36:55.980Z,48.28
2023-03-11T16:39:27.749Z,49.49
2023-03-11T16:41:59.794Z,48.58
2023-03-11T16:44:31.409Z,47.80
2023-03-11T16:47:02.908Z,49.39
2023-03-11T16:49:34.542Z,50.68
2023-03-11T16:52:07.389Z,50.37
2023-03-11T16:54:38.923Z,49.03
2023-03-11T16:57:10.613Z,49.47
2023-03-11T16:59:42.158Z,48.67
2023-03-11T17:02:13.842Z,49.44
2023-03-11T17:04:45.411Z,50.64
2023-03-11T17:07:17.167Z,49.76
2023-03-11T17:09:48.718Z,49.86
2023-03-11T17:12:20.348Z,50.67
2023-03-11T17:14:53.474Z,51.71
2023-03-11T17:17:25.205Z,51.14
2023-03-11T17:19:59.558Z,50.92
2023-03-11T17:22:32.447Z,51.80
2023-03-11T17:25:05.153Z,52.34
2023-03-11T17:27:36.753Z,52.05
2023-03-11T17:30:09.679Z,52.95
2023-03-11T17:32:41.280Z,52.88
2023-03-11T17:35:12.889Z,52.82
2023-03-11T17:37:44.415Z,51.95
2023-03-11T17:40:16.820Z,51.66
2023-03-11T17:42:48.328Z,51.96
2023-03-11T17:45:19.957Z,52.19
2023-03-11T17:47:51.794Z,52.01
2023-03-11T17:50:23.439Z,52.44
2023-03-11T17:52:56.472Z,51.95
2023-03-11T17:55:28.107Z,52.53
2023-03-11T17:58:00.755Z,51.92
2023-03-11T18:00:32.550Z,52.72
2023-03-11T18:03:04.144Z,53.99
2023-03-11T18:05:37.774Z,53.15
2023-03-11T18:08:09.388Z,53.96
2023-03-11T18:10:40.929Z,56.16
2023-03-11T18:13:12.569Z,53.71
2023-03-11T18:15:56.473Z,53.20
2023-03-11T18:18:30.594Z,55.72
2023-03-11T18:21:08.451Z,55.21
2023-03-11T18:23:47.811Z,56.11
2023-03-11T18:26:19.782Z,54.95
2023-03-11T18:29:00.202Z,56.21
2023-03-11T18:31:32.415Z,55.75
2023-03-11T18:34:05.131Z,56.69
2023-03-11T18:36:37.611Z,55.62
2023-03-11T18:39:12.663Z,54.55
2023-03-11T18:41:44.260Z,55.36
2023-03-11T18:44:16.252Z,55.41
2023-03-11T18:46:47.821Z,55.97
2023-03-11T18:49:19.354Z,61.38
2023-03-11T18:51:50.960Z,60.80
2023-03-11T18:54:22.607Z,54.90
2023-03-11T18:56:54.399Z,54.41
2023-03-11T18:59:27.709Z,56.12
2023-03-11T19:01:59.455Z,56.04
2023-03-11T19:04:31.125Z,56.48
2023-03-11T19:07:02.648Z,56.43
2023-03-11T19:09:34.276Z,57.17
2023-03-11T19:12:06.306Z,57.71
2023-03-11T19:14:37.819Z,57.99
2023-03-11T19:17:09.422Z,59.20
2023-03-11T19:19:41.125Z,60.78
2023-03-11T19:22:12.681Z,60.83
2023-03-11T19:24:44.220Z,59.26
2023-03-11T19:27:15.728Z,58.48
2023-03-11T19:29:47.270Z,59.90
2023-03-11T19:32:18.905Z,58.49
2023-03-11T19:34:50.500Z,58.75
2023-03-11T19:37:25.122Z,60.09
2023-03-11T19:39:56.729Z,59.05
2023-03-11T19:42:28.364Z,58.83
2023-03-11T19:45:02.035Z,57.50
2023-03-11T19:47:33.697Z,57.37
2023-03-11T19:50:06.556Z,58.69
2023-03-11T19:52:38.142Z,59.92
2023-03-11T19:55:10.365Z,57.63
2023-03-11T19:57:42.159Z,56.93
2023-03-11T20:00:14.230Z,57.89
2023-03-11T20:02:45.833Z,56.86
2023-03-11T20:05:17.674Z,56.49
2023-03-11T20:07:49.319Z,56.20
2023-03-11T20:10:20.925Z,56.16
2023-03-11T20:13:02.145Z,56.34
2023-03-11T20:15:34.520Z,56.67
2023-03-11T20:18:07.549Z,57.00
2023-03-11T20:20:39.889Z,57.45
2023-03-11T20:23:12.880Z,57.01
2023-03-11T20:25:44.628Z,58.03
2023-03-11T20:28:16.500Z,58.01
2023-03-11T20:30:48.289Z,57.81
2023-03-11T20:33:19.996Z,57.28
2023-03-11T20:35:51.715Z,57.66
2023-03-11T20:38:23.309Z,57.86
2023-03-11T20:40:56.531Z,57.48
2023-03-11T20:43:28.367Z,59.43
2023-03-11T20:46:01.975Z,58.10
2023-03-11T20:48:36.052Z,57.23
2023-03-11T20:51:11.905Z,56.54
2023-03-11T20:53:43.544Z,57.02
2023-03-11T20:56:19.399Z,57.22
2023-03-11T20:58:53.339Z,56.73
2023-03-11T21:01:29.065Z,56.93
2023-03-11T21:04:03.229Z,57.75
2023-03-11T21:06:39.273Z,57.61
2023-03-11T21:09:14.708Z,56.69
2023-03-11T21:11:46.452Z,57.26
2023-03-11T21:14:19.055Z,56.98
2023-03-11T21:16:50.940Z,57.35
2023-03-11T21:19:23.261Z,56.53
2023-03-11T21:21:55.118Z,56.48
2023-03-11T21:24:26.937Z,57.17
2023-03-11T21:26:58.470Z,57.29
2023-03-11T21:29:30.774Z,58.20
2023-03-11T21:32:02.934Z,57.89
2023-03-11T21:34:34.717Z,57.46
2023-03-11T21:37:06.409Z,57.15
2023-03-11T21:39:38.080Z,57.64
2023-03-11T21:42:09.771Z,58.18
2023-03-11T21:44:42.042Z,57.55
2023-03-11T21:47:14.310Z,57.61
2023-03-11T21:49:46.067Z,57.42
2023-03-11T21:52:18.021Z,60.68
2023-03-11T21:54:52.918Z,58.63
2023-03-11T21:57:24.623Z,57.54
2023-03-11T21:59:56.413Z,58.16
2023-03-11T22:02:28.334Z,57.77
2023-03-11T22:05:00.328Z,57.98
2023-03-11T22:07:32.096Z,58.15
2023-03-11T22:10:05.390Z,59.04
2023-03-11T22:12:37.178Z,58.60
2023-03-11T22:15:09.317Z,58.62
2023-03-11T22:17:41.243Z,58.67
2023-03-11T22:20:13.542Z,58.11
2023-03-11T22:22:46.195Z,57.33
2023-03-11T22:25:17.947Z,57.82
2023-03-11T22:27:49.597Z,56.81
2023-03-11T22:30:21.365Z,56.65
2023-03-11T22:32:53.027Z,56.23
2023-03-11T22:35:27.838Z,56.60
2023-03-11T22:37:59.527Z,56.77
2023-03-11T22:40:31.151Z,56.54
2023-03-11T22:43:02.876Z,56.35
2023-03-11T22:45:34.494Z,55.85
2023-03-11T22:48:06.589Z,56.04
2023-03-11T22:50:44.541Z,56.32
2023-03-11T22:53:16.195Z,56.14
2023-03-11T22:55:47.781Z,55.58
2023-03-11T22:58:19.766Z,55.29
2023-03-11T23:00:51.394Z,54.74
2023-03-11T23:03:23.082Z,54.74
2023-03-11T23:05:59.535Z,54.53
2023-03-11T23:08:31.449Z,54.14
2023-03-11T23:11:07.259Z,54.23
2023-03-11T23:13:41.235Z,53.54
2023-03-11T23:16:21.852Z,53.93
2023-03-11T23:18:55.429Z,53.67
2023-03-11T23:21:32.049Z,53.98
2023-03-11T23:24:06.201Z,53.97
2023-03-11T23:26:38.058Z,54.09
2023-03-11T23:29:09.631Z,54.59
2023-03-11T23:31:41.248Z,54.59
2023-03-11T23:34:12.971Z,55.42
2023-03-11T23:36:44.566Z,54.14
2023-03-11T23:39:16.240Z,53.92
2023-03-11T23:41:47.900Z,54.88
2023-03-11T23:44:19.528Z,55.30
2023-03-11T23:46:51.079Z,56.13
2023-03-11T23:49:22.722Z,57.48
2023-03-11T23:51:54.270Z,56.75
2023-03-11T23:54:25.982Z,55.81
2023-03-11T23:56:57.504Z,56.73
2023-03-11T23:59:29.129Z,55.63
